Hasvik — LNAR — position and weather

sailwx.info

Track history (hours):
 
Tides and Currents Weather Stations Pressure Air Temp Water Temp Dewpoint Dewpoint Depression Visibility Wind Speed Wind Dir Waves Ship Positions

Hasvik

Last reported at 2017-Dec-11 17:00 UTC. Time now 2017-Dec-11 17:21 UTC.
Position N 70°14' E 022°21'.

Length 62 m; draft 3.5 m.

Type: Passenger vessel. MMSI: 258287000.

Date/timePositionNaut miles runAvg speedWind from/ knotsBaromVisibWave heightAir tempDewpointWater temp
2017-Dec-11 17:00N 70°14' E 022°21'0 0.0
2017-Dec-11 16:30N 70°14' E 022°21'0 0.6
2017-Dec-11 16:00N 70°14' E 022°21'0 0.6
2017-Dec-11 15:30N 70°14' E 022°21'4 8.2
2017-Dec-11 15:00N 70°18' E 022°18'611.8
2017-Dec-11 14:30N 70°24' E 022°15'610.9
2017-Dec-11 14:00N 70°29' E 022°10'0 0.0
2017-Dec-11 13:30N 70°29' E 022°10'0 0.0
2017-Dec-11 13:00N 70°29' E 022°10'0 0.0
2017-Dec-11 12:30N 70°29' E 022°10'0 0.0
2017-Dec-11 11:59N 70°29' E 022°10'0 0.0
2017-Dec-11 11:30N 70°29' E 022°10'0 0.0
2017-Dec-11 11:00N 70°29' E 022°10'0 0.0
2017-Dec-11 10:30N 70°29' E 022°10'2 3.9
2017-Dec-11 10:00N 70°27' E 022°12'611.7
2017-Dec-11 09:30N 70°22' E 022°16'611.8
2017-Dec-11 08:59N 70°16' E 022°20'2 4.4
2017-Dec-11 08:30N 70°14' E 022°16'2 3.6
2017-Dec-11 08:00N 70°14' E 022°21'5 9.9
2017-Dec-11 07:30N 70°18' E 022°13'611.2
2017-Dec-11 07:00N 70°20' E 021°58'611.2
2017-Dec-11 06:30N 70°16' E 021°46'3 6.3
2017-Dec-11 06:00N 70°13' E 021°43'0 0.1
2017-Dec-11 05:30N 70°13' E 021°43'0 0.0
2017-Dec-11 04:58N 70°13' E 021°43'0 0.0
2017-Dec-11 04:29N 70°13' E 021°43'0 0.0
2017-Dec-11 03:59N 70°13' E 021°43'0 0.0
2017-Dec-11 03:30N 70°13' E 021°43'0 0.0
2017-Dec-11 03:00N 70°13' E 021°43'0 0.0
2017-Dec-11 02:30N 70°13' E 021°43'0 0.0
2017-Dec-11 02:00N 70°13' E 021°43'0 0.0
2017-Dec-11 01:29N 70°13' E 021°43'0 0.0
2017-Dec-11 01:00N 70°13' E 021°43'0 0.0
2017-Dec-11 00:29N 70°13' E 021°43'0 0.0
2017-Dec-10 23:59N 70°13' E 021°43'0 0.0
2017-Dec-10 23:30N 70°13' E 021°43'0 0.0
2017-Dec-10 23:00N 70°13' E 021°43'0 0.0
2017-Dec-10 22:30N 70°13' E 021°43'0 0.0
2017-Dec-10 22:00N 70°13' E 021°43'0 0.0
2017-Dec-10 21:30N 70°13' E 021°43'0 0.0
2017-Dec-10 20:58N 70°13' E 021°43'0 0.0
2017-Dec-10 20:30N 70°13' E 021°43'0 0.0
2017-Dec-10 19:59N 70°13' E 021°43'3 6.1
2017-Dec-10 19:30N 70°16' E 021°46'611.2
2017-Dec-10 19:00N 70°20' E 021°57'510.9
2017-Dec-10 18:30N 70°18' E 022°12'510.6
2017-Dec-10 18:00N 70°14' E 022°21'2 4.8
2017-Dec-10 17:30N 70°16' E 022°19'611.0
2017-Dec-10 16:59N 70°20' E 022°05'510.1
2017-Dec-10 16:30N 70°18' E 021°51'4 7.0
2017-Dec-10 16:00N 70°15' E 021°46'2 4.8
2017-Dec-10 15:30N 70°13' E 021°43'0 0.0
2017-Dec-10 15:00N 70°13' E 021°43'0 0.0
2017-Dec-10 14:30N 70°13' E 021°43'0 0.0
2017-Dec-10 14:00N 70°13' E 021°43'0 0.0
2017-Dec-10 13:30N 70°13' E 021°43'0 0.0
2017-Dec-10 13:00N 70°13' E 021°43'0 0.0
2017-Dec-10 12:30N 70°13' E 021°43'0 0.0
2017-Dec-10 12:00N 70°13' E 021°43'0 0.0
2017-Dec-10 11:30N 70°13' E 021°43'0 0.0
2017-Dec-10 11:00N 70°13' E 021°43'0 0.0
2017-Dec-10 10:30N 70°13' E 021°43'0 0.0
2017-Dec-10 10:00N 70°13' E 021°43'0 0.0
2017-Dec-10 09:30N 70°13' E 021°43'0 0.0
2017-Dec-10 08:59N 70°13' E 021°43'0 0.0
2017-Dec-10 08:30N 70°13' E 021°43'0 0.0
2017-Dec-10 08:00N 70°13' E 021°43'0 0.0
2017-Dec-10 07:30N 70°13' E 021°43'0 0.0
2017-Dec-10 07:00N 70°13' E 021°43'0 0.0
2017-Dec-10 06:29N 70°13' E 021°43'0 0.0
2017-Dec-10 06:00N 70°13' E 021°43'0 0.0
2017-Dec-10 05:30N 70°13' E 021°43'0 0.0
2017-Dec-10 05:00N 70°13' E 021°43'0 0.0
2017-Dec-10 04:30N 70°13' E 021°43'0 0.0
2017-Dec-10 04:00N 70°13' E 021°43'0 0.0
2017-Dec-10 03:29N 70°13' E 021°43'0 0.0
2017-Dec-10 03:00N 70°13' E 021°43'0 0.0
2017-Dec-10 02:30N 70°13' E 021°43'0 0.0
2017-Dec-10 02:00N 70°13' E 021°43'0 0.0
2017-Dec-10 01:29N 70°13' E 021°43'0 0.0
2017-Dec-10 01:00N 70°13' E 021°43'0 0.0
2017-Dec-10 00:29N 70°13' E 021°43'0 0.0
2017-Dec-09 23:59N 70°13' E 021°43'0 0.0
2017-Dec-09 23:29N 70°13' E 021°43'0 0.0
2017-Dec-09 22:59N 70°13' E 021°43'0 0.0
2017-Dec-09 22:28N 70°13' E 021°43'0 0.0
2017-Dec-09 22:00N 70°13' E 021°43'0 0.0
2017-Dec-09 21:29N 70°13' E 021°43'0 0.0
2017-Dec-09 21:00N 70°13' E 021°43'0 0.0
2017-Dec-09 20:31N 70°13' E 021°43'0 0.0
2017-Dec-09 19:59N 70°13' E 021°43'0 0.0
2017-Dec-09 19:30N 70°13' E 021°43'0 0.0
2017-Dec-09 19:00N 70°13' E 021°43'0 0.0
2017-Dec-09 18:29N 70°13' E 021°43'0 0.0
2017-Dec-09 18:00N 70°13' E 021°43'0 0.0
2017-Dec-09 17:29N 70°13' E 021°43'0 0.0
2017-Dec-09 16:54N 70°13' E 021°43'0 0.0
2017-Dec-09 16:30N 70°13' E 021°43'0 0.0
2017-Dec-09 16:00N 70°13' E 021°43'0 0.0
2017-Dec-09 15:28N 70°13' E 021°43'0 0.0
2017-Dec-09 14:49N 70°13' E 021°43'0 0.0
2017-Dec-09 14:12N 70°13' E 021°43'0 0.0
2017-Dec-09 13:46N 70°13' E 021°43'0 0.0
2017-Dec-09 13:30N 70°13' E 021°43'0 0.0
2017-Dec-09 12:56N 70°13' E 021°43'0 0.0
2017-Dec-09 12:29N 70°13' E 021°43'0 0.0
2017-Dec-09 11:56N 70°13' E 021°43'2 4.6
2017-Dec-09 11:30N 70°15' E 021°45'510.1
2017-Dec-09 10:59N 70°19' E 021°54'5 9.5
2017-Dec-09 10:30N 70°19' E 022°08'510.7
2017-Dec-09 10:00N 70°16' E 022°19'2 3.4
2017-Dec-09 09:30N 70°14' E 022°21'1 1.9
2017-Dec-09 09:00N 70°15' E 022°20'510.6
2017-Dec-09 08:30N 70°19' E 022°10'510.6
2017-Dec-09 08:00N 70°20' E 021°54'5 9.1
2017-Dec-09 07:30N 70°16' E 021°46'3 5.2
2017-Dec-09 07:00N 70°13' E 021°44'0 0.8
2017-Dec-09 06:30N 70°13' E 021°43'0 0.0
2017-Dec-09 06:00N 70°13' E 021°43'0 0.0
2017-Dec-09 05:30N 70°13' E 021°43'0 0.0
2017-Dec-09 04:59N 70°13' E 021°43'0 0.0
2017-Dec-09 04:30N 70°13' E 021°43'0 0.0
2017-Dec-09 03:58N 70°13' E 021°43'0 0.0
2017-Dec-09 03:30N 70°13' E 021°43'0 0.0
2017-Dec-09 02:59N 70°13' E 021°43'0 0.0
2017-Dec-09 02:29N 70°13' E 021°43'0 0.0
2017-Dec-09 01:59N 70°13' E 021°43'0 0.0
2017-Dec-09 01:30N 70°13' E 021°43'0 0.0
2017-Dec-09 01:00N 70°13' E 021°43'0 0.0
2017-Dec-09 00:30N 70°13' E 021°43'0 0.0
2017-Dec-09 00:00N 70°13' E 021°43'0 0.0
2017-Dec-08 23:30N 70°13' E 021°43'0 0.0
2017-Dec-08 22:59N 70°13' E 021°43'0 0.0
2017-Dec-08 22:29N 70°13' E 021°43'0 0.0
2017-Dec-08 22:00N 70°13' E 021°43'0 0.0
2017-Dec-08 21:29N 70°13' E 021°43'0 0.0
2017-Dec-08 20:59N 70°13' E 021°43'0 0.0
2017-Dec-08 20:29N 70°13' E 021°43'2 4.9
2017-Dec-08 20:00N 70°15' E 021°47'4 7.9
2017-Dec-08 19:30N 70°19' E 021°52'610.9
2017-Dec-08 18:59N 70°19' E 022°09'611.8
2017-Dec-08 18:30N 70°15' E 022°20'1 1.5
2017-Dec-08 18:00N 70°14' E 022°21'0 0.0
2017-Dec-08 17:30N 70°14' E 022°21'0 0.0
2017-Dec-08 17:00N 70°14' E 022°21'0 0.0
2017-Dec-08 16:30N 70°14' E 022°21'1 1.6
2017-Dec-08 16:00N 70°14' E 022°19'1 1.6
2017-Dec-08 15:30N 70°14' E 022°21'5 9.8
2017-Dec-08 15:00N 70°19' E 022°18'611.0
2017-Dec-08 14:30N 70°24' E 022°14'510.0
2017-Dec-08 13:59N 70°29' E 022°10'0 0.0
2017-Dec-08 13:30N 70°29' E 022°10'0 0.0
2017-Dec-08 13:00N 70°29' E 022°10'0 0.0
2017-Dec-08 12:30N 70°29' E 022°10'0 0.0
2017-Dec-08 12:00N 70°29' E 022°10'0 0.0
2017-Dec-08 11:30N 70°29' E 022°10'0 0.0
2017-Dec-08 10:59N 70°29' E 022°10'0 0.0
2017-Dec-08 10:30N 70°29' E 022°10'2 4.5
2017-Dec-08 10:00N 70°27' E 022°13'611.7
2017-Dec-08 09:30N 70°21' E 022°17'611.6
2017-Dec-08 09:00N 70°16' E 022°20'2 4.3
2017-Dec-08 08:30N 70°14' E 022°16'1 3.0
2017-Dec-08 08:00N 70°14' E 022°20'510.4
2017-Dec-08 07:30N 70°19' E 022°11'510.6
2017-Dec-08 07:00N 70°20' E 021°56'611.5
2017-Dec-08 06:30N 70°15' E 021°47'2 4.7
2017-Dec-08 06:00N 70°13' E 021°43'0 0.0
2017-Dec-08 05:30N 70°13' E 021°43'0 0.0
2017-Dec-08 05:00N 70°13' E 021°43'0 0.0
2017-Dec-08 04:25N 70°13' E 021°43'0 0.0
2017-Dec-08 04:00N 70°13' E 021°43'0 0.0
2017-Dec-08 03:27N 70°13' E 021°43'0 0.0
2017-Dec-08 02:59N 70°13' E 021°43'0 0.0
2017-Dec-08 02:30N 70°13' E 021°43'0 0.0
2017-Dec-08 02:00N 70°13' E 021°43'0 0.0
2017-Dec-08 01:30N 70°13' E 021°43'0 0.0
2017-Dec-08 01:00N 70°13' E 021°43'0 0.0
2017-Dec-08 00:30N 70°13' E 021°43'0 0.0
2017-Dec-07 23:59N 70°13' E 021°43'0 0.0
2017-Dec-07 23:30N 70°13' E 021°43'0 0.0
2017-Dec-07 23:00N 70°13' E 021°43'0 0.0
2017-Dec-07 22:30N 70°13' E 021°43'0 0.0
2017-Dec-07 22:00N 70°13' E 021°43'0 0.0
2017-Dec-07 21:30N 70°13' E 021°43'0 0.0
2017-Dec-07 20:58N 70°13' E 021°43'0 0.0
2017-Dec-07 20:29N 70°13' E 021°43'0 0.8
2017-Dec-07 20:00N 70°13' E 021°44'3 5.6
2017-Dec-07 19:30N 70°16' E 021°46'611.3
2017-Dec-07 19:00N 70°20' E 021°58'611.4
2017-Dec-07 18:30N 70°18' E 022°14'5 9.5
2017-Dec-07 18:00N 70°14' E 022°21'0 0.0
2017-Dec-07 17:30N 70°14' E 022°21'0 0.0
2017-Dec-07 17:00N 70°14' E 022°21'0 0.0
2017-Dec-07 16:30N 70°14' E 022°21'1 1.2
2017-Dec-07 16:00N 70°14' E 022°20'1 1.2
2017-Dec-07 15:30N 70°14' E 022°21'5 9.5
2017-Dec-07 15:00N 70°18' E 022°16'611.3
2017-Dec-07 14:30N 70°24' E 022°14'510.5
2017-Dec-07 14:00N 70°29' E 022°10'0 0.0
2017-Dec-07 13:30N 70°29' E 022°10'0 0.0
2017-Dec-07 13:00N 70°29' E 022°10'0 0.0
2017-Dec-07 12:30N 70°29' E 022°10'0 0.0
2017-Dec-07 12:00N 70°29' E 022°10'0 0.0
2017-Dec-07 11:30N 70°29' E 022°10'0 0.0
2017-Dec-07 11:00N 70°29' E 022°10'0 0.0
2017-Dec-07 10:30N 70°29' E 022°10'2 4.5
2017-Dec-07 10:00N 70°27' E 022°13'611.6
2017-Dec-07 09:30N 70°21' E 022°17'611.7
2017-Dec-07 09:00N 70°16' E 022°20'2 4.2
2017-Dec-07 08:30N 70°14' E 022°16'2 3.7
2017-Dec-07 08:00N 70°14' E 022°21'510.0
2017-Dec-07 07:30N 70°18' E 022°13'611.2
2017-Dec-07 07:00N 70°20' E 021°58'611.3
2017-Dec-07 06:30N 70°16' E 021°46'  
2017-Dec-04 10:30N 70°14' E 022°21'4 7.6
2017-Dec-04 10:00N 70°18' E 022°18'611.6
2017-Dec-04 09:30N 70°23' E 022°15'611.2
2017-Dec-04 09:00N 70°29' E 022°10'1 3.0
2017-Dec-04 08:30N 70°28' E 022°12'611.6
2017-Dec-04 07:59N 70°22' E 022°15'611.3
2017-Dec-04 07:30N 70°16' E 022°19'3 5.4
2017-Dec-04 07:00N 70°14' E 022°17'2 3.2
2017-Dec-04 06:29N 70°14' E 022°21'4 9.1
2017-Dec-04 06:00N 70°18' E 022°18'611.5
2017-Dec-04 05:30N 70°24' E 022°14'510.6
2017-Dec-04 05:00N 70°29' E 022°10'0 0.0
2017-Dec-04 04:30N 70°29' E 022°10'0 0.0
2017-Dec-04 04:00N 70°29' E 022°10'0 0.0
2017-Dec-04 03:30N 70°29' E 022°10'0 0.0
2017-Dec-04 03:00N 70°29' E 022°10'0 0.0
2017-Dec-04 02:30N 70°29' E 022°10'0 0.0
2017-Dec-04 02:00N 70°29' E 022°10'0 0.0
2017-Dec-04 01:30N 70°29' E 022°10'0 0.0
2017-Dec-04 01:00N 70°29' E 022°10'0 0.0
2017-Dec-04 00:30N 70°29' E 022°10'0 0.0
2017-Dec-04 00:00N 70°29' E 022°10'0 0.0
2017-Dec-03 23:30N 70°29' E 022°10'0 0.0
2017-Dec-03 23:00N 70°29' E 022°10'0 0.0
2017-Dec-03 22:30N 70°29' E 022°10'0 0.0
2017-Dec-03 22:00N 70°29' E 022°10'0 0.0
2017-Dec-03 21:29N 70°29' E 022°10'0 0.0
2017-Dec-03 21:00N 70°29' E 022°10'0 0.1
2017-Dec-03 20:30N 70°29' E 022°10'510.5
2017-Dec-03 20:00N 70°24' E 022°14'510.5
2017-Dec-03 19:30N 70°19' E 022°17'510.0
2017-Dec-03 19:00N 70°14' E 022°21'2 3.6
2017-Dec-03 18:30N 70°14' E 022°16'2 3.5
2017-Dec-03 18:00N 70°15' E 022°20'611.9
2017-Dec-03 17:30N 70°21' E 022°16'611.6
2017-Dec-03 17:00N 70°27' E 022°12'2 3.5
2017-Dec-03 16:30N 70°28' E 022°11'611.6
2017-Dec-03 16:00N 70°23' E 022°15'510.8
2017-Dec-03 15:29N 70°17' E 022°19'3 6.9
2017-Dec-03 15:00N 70°14' E 022°21'0 0.0
2017-Dec-03 14:30N 70°14' E 022°21'0 0.0
2017-Dec-03 14:00N 70°14' E 022°21'0 0.0
2017-Dec-03 13:30N 70°14' E 022°21'0 0.0
2017-Dec-03 13:00N 70°14' E 022°21'0 0.0
2017-Dec-03 12:29N 70°14' E 022°21'0 0.0
2017-Dec-03 12:00N 70°14' E 022°21'0 0.0
2017-Dec-03 11:30N 70°14' E 022°21'0 0.0
2017-Dec-03 11:00N 70°14' E 022°21'0 0.0
2017-Dec-03 10:30N 70°14' E 022°21'2 4.8
2017-Dec-03 10:00N 70°16' E 022°19'611.5
2017-Dec-03 09:30N 70°22' E 022°16'611.6
2017-Dec-03 09:00N 70°28' E 022°12'2 3.3
2017-Dec-03 08:30N 70°29' E 022°10'0 0.0
2017-Dec-03 08:00N 70°29' E 022°10'0 0.0
2017-Dec-03 07:30N 70°29' E 022°10'0 0.0
2017-Dec-03 07:00N 70°29' E 022°10'0 0.0
2017-Dec-03 06:30N 70°29' E 022°10'0 0.0
2017-Dec-03 06:00N 70°29' E 022°10'0 0.0
2017-Dec-03 05:30N 70°29' E 022°10'0 0.0
2017-Dec-03 05:00N 70°29' E 022°10'0 0.0
2017-Dec-03 04:30N 70°29' E 022°10'0 0.0
2017-Dec-03 04:00N 70°29' E 022°10'0 0.0
2017-Dec-03 03:29N 70°29' E 022°10'0 0.0
2017-Dec-03 02:59N 70°29' E 022°10'0 0.0
2017-Dec-03 02:30N 70°29' E 022°10'0 0.0
2017-Dec-03 02:00N 70°29' E 022°10'0 0.0
2017-Dec-03 01:30N 70°29' E 022°10'0 0.0
2017-Dec-03 01:00N 70°29' E 022°10'0 0.0
2017-Dec-03 00:30N 70°29' E 022°10'0 0.0
2017-Dec-03 00:00N 70°29' E 022°10'0 0.0
2017-Dec-02 23:30N 70°29' E 022°10'0 0.0
2017-Dec-02 22:59N 70°29' E 022°10'0 0.0
2017-Dec-02 22:30N 70°29' E 022°10'0 0.0
2017-Dec-02 22:00N 70°29' E 022°10'0 0.0
2017-Dec-02 21:30N 70°29' E 022°10'0 0.0
2017-Dec-02 21:00N 70°29' E 022°10'0 0.2
2017-Dec-02 20:30N 70°29' E 022°10'5 9.6
2017-Dec-02 20:00N 70°24' E 022°14'510.7
2017-Dec-02 19:30N 70°19' E 022°17'510.3
2017-Dec-02 19:00N 70°14' E 022°21'0 0.8
2017-Dec-02 18:30N 70°14' E 022°21'0 0.0
2017-Dec-02 18:00N 70°14' E 022°21'0 0.0
2017-Dec-02 17:30N 70°14' E 022°21'0 0.0
2017-Dec-02 17:00N 70°14' E 022°21'0 0.0
2017-Dec-02 16:30N 70°14' E 022°21'0 0.0
2017-Dec-02 16:00N 70°14' E 022°21'0 0.0
2017-Dec-02 15:30N 70°14' E 022°21'0 0.0
2017-Dec-02 15:00N 70°14' E 022°21'0 0.0
2017-Dec-02 14:30N 70°14' E 022°21'0 0.0
2017-Dec-02 14:00N 70°14' E 022°21'0 0.0
2017-Dec-02 13:30N 70°14' E 022°21'0 0.0
2017-Dec-02 13:00N 70°14' E 022°21'0 0.0
2017-Dec-02 12:30N 70°14' E 022°21'0 0.0
2017-Dec-02 12:00N 70°14' E 022°21'0 0.0
2017-Dec-02 11:30N 70°14' E 022°21'0 0.0
2017-Dec-02 11:00N 70°14' E 022°21'0 0.0
2017-Dec-02 10:30N 70°14' E 022°21'0 0.0
2017-Dec-02 10:00N 70°14' E 022°21'0 0.0
2017-Dec-02 09:30N 70°14' E 022°21'0 0.0
2017-Dec-02 09:00N 70°14' E 022°21'0 0.0
2017-Dec-02 08:30N 70°14' E 022°21'0 0.0
2017-Dec-02 08:00N 70°14' E 022°21'0 0.0
2017-Dec-02 07:30N 70°14' E 022°21'0 0.0
2017-Dec-02 07:00N 70°14' E 022°21'0 0.4
2017-Dec-02 06:30N 70°14' E 022°21'611.3
2017-Dec-02 06:00N 70°20' E 022°17'611.1
2017-Dec-02 05:29N 70°25' E 022°09'4 8.8
2017-Dec-02 05:00N 70°29' E 022°10'0 0.0
2017-Dec-02 04:30N 70°29' E 022°10'0 0.0
2017-Dec-02 04:00N 70°29' E 022°10'0 0.0
2017-Dec-02 03:30N 70°29' E 022°10'0 0.0
2017-Dec-02 03:00N 70°29' E 022°10'0 0.0
2017-Dec-02 02:30N 70°29' E 022°10'0 0.0
2017-Dec-02 02:00N 70°29' E 022°10'0 0.0
2017-Dec-02 01:30N 70°29' E 022°10'0 0.0
2017-Dec-02 00:59N 70°29' E 022°10'0 0.0
2017-Dec-02 00:30N 70°29' E 022°10'0 0.0
2017-Dec-02 00:00N 70°29' E 022°10'0 0.0
2017-Dec-01 23:30N 70°29' E 022°10'0 0.0
2017-Dec-01 23:00N 70°29' E 022°10'0 0.0
2017-Dec-01 22:30N 70°29' E 022°10'0 0.0
2017-Dec-01 21:59N 70°29' E 022°10'0 0.0
2017-Dec-01 21:30N 70°29' E 022°10'0 0.0
2017-Dec-01 21:00N 70°29' E 022°10'0 0.0
2017-Dec-01 20:30N 70°29' E 022°10'4 7.7
2017-Dec-01 20:00N 70°25' E 022°13'611.8
2017-Dec-01 19:30N 70°20' E 022°17'611.6
2017-Dec-01 19:00N 70°14' E 022°21'2 3.8
2017-Dec-01 18:30N 70°14' E 022°16'3 5.1
2017-Dec-01 18:00N 70°16' E 022°19'611.1
2017-Dec-01 17:30N 70°21' E 022°16'  
Track history (hours):
 
Tides and Currents Weather Stations Pressure Air Temp Water Temp Dewpoint Dewpoint Depression Visibility Wind Speed Wind Dir Waves Ship Positions

Hasvik

Last reported at 2017-Dec-11 17:00 UTC. Time now 2017-Dec-11 17:21 UTC.
Position N 70°14' E 022°21'.

Length 62 m; draft 3.5 m.

Type: Passenger vessel. MMSI: 258287000.

Date/timePositionNaut miles runAvg speedWind from/ knotsBaromVisibWave heightAir tempDewpointWater temp
2017-Dec-11 17:00N 70°14' E 022°21'0 0.0
2017-Dec-11 16:30N 70°14' E 022°21'0 0.6
2017-Dec-11 16:00N 70°14' E 022°21'0 0.6
2017-Dec-11 15:30N 70°14' E 022°21'4 8.2
2017-Dec-11 15:00N 70°18' E 022°18'611.8
2017-Dec-11 14:30N 70°24' E 022°15'610.9
2017-Dec-11 14:00N 70°29' E 022°10'0 0.0
2017-Dec-11 13:30N 70°29' E 022°10'0 0.0
2017-Dec-11 13:00N 70°29' E 022°10'0 0.0
2017-Dec-11 12:30N 70°29' E 022°10'0 0.0
2017-Dec-11 11:59N 70°29' E 022°10'0 0.0
2017-Dec-11 11:30N 70°29' E 022°10'0 0.0
2017-Dec-11 11:00N 70°29' E 022°10'0 0.0
2017-Dec-11 10:30N 70°29' E 022°10'2 3.9
2017-Dec-11 10:00N 70°27' E 022°12'611.7
2017-Dec-11 09:30N 70°22' E 022°16'611.8
2017-Dec-11 08:59N 70°16' E 022°20'2 4.4
2017-Dec-11 08:30N 70°14' E 022°16'2 3.6
2017-Dec-11 08:00N 70°14' E 022°21'5 9.9
2017-Dec-11 07:30N 70°18' E 022°13'611.2
2017-Dec-11 07:00N 70°20' E 021°58'611.2
2017-Dec-11 06:30N 70°16' E 021°46'3 6.3
2017-Dec-11 06:00N 70°13' E 021°43'0 0.1
2017-Dec-11 05:30N 70°13' E 021°43'0 0.0
2017-Dec-11 04:58N 70°13' E 021°43'0 0.0
2017-Dec-11 04:29N 70°13' E 021°43'0 0.0
2017-Dec-11 03:59N 70°13' E 021°43'0 0.0
2017-Dec-11 03:30N 70°13' E 021°43'0 0.0
2017-Dec-11 03:00N 70°13' E 021°43'0 0.0
2017-Dec-11 02:30N 70°13' E 021°43'0 0.0
2017-Dec-11 02:00N 70°13' E 021°43'0 0.0
2017-Dec-11 01:29N 70°13' E 021°43'0 0.0
2017-Dec-11 01:00N 70°13' E 021°43'0 0.0
2017-Dec-11 00:29N 70°13' E 021°43'0 0.0
2017-Dec-10 23:59N 70°13' E 021°43'0 0.0
2017-Dec-10 23:30N 70°13' E 021°43'0 0.0
2017-Dec-10 23:00N 70°13' E 021°43'0 0.0
2017-Dec-10 22:30N 70°13' E 021°43'0 0.0
2017-Dec-10 22:00N 70°13' E 021°43'0 0.0
2017-Dec-10 21:30N 70°13' E 021°43'0 0.0
2017-Dec-10 20:58N 70°13' E 021°43'0 0.0
2017-Dec-10 20:30N 70°13' E 021°43'0 0.0
2017-Dec-10 19:59N 70°13' E 021°43'3 6.1
2017-Dec-10 19:30N 70°16' E 021°46'611.2
2017-Dec-10 19:00N 70°20' E 021°57'510.9
2017-Dec-10 18:30N 70°18' E 022°12'510.6
2017-Dec-10 18:00N 70°14' E 022°21'2 4.8
2017-Dec-10 17:30N 70°16' E 022°19'611.0
2017-Dec-10 16:59N 70°20' E 022°05'510.1
2017-Dec-10 16:30N 70°18' E 021°51'4 7.0
2017-Dec-10 16:00N 70°15' E 021°46'2 4.8
2017-Dec-10 15:30N 70°13' E 021°43'0 0.0
2017-Dec-10 15:00N 70°13' E 021°43'0 0.0
2017-Dec-10 14:30N 70°13' E 021°43'0 0.0
2017-Dec-10 14:00N 70°13' E 021°43'0 0.0
2017-Dec-10 13:30N 70°13' E 021°43'0 0.0
2017-Dec-10 13:00N 70°13' E 021°43'0 0.0
2017-Dec-10 12:30N 70°13' E 021°43'0 0.0
2017-Dec-10 12:00N 70°13' E 021°43'0 0.0
2017-Dec-10 11:30N 70°13' E 021°43'0 0.0
2017-Dec-10 11:00N 70°13' E 021°43'0 0.0
2017-Dec-10 10:30N 70°13' E 021°43'0 0.0
2017-Dec-10 10:00N 70°13' E 021°43'0 0.0
2017-Dec-10 09:30N 70°13' E 021°43'0 0.0
2017-Dec-10 08:59N 70°13' E 021°43'0 0.0
2017-Dec-10 08:30N 70°13' E 021°43'0 0.0
2017-Dec-10 08:00N 70°13' E 021°43'0 0.0
2017-Dec-10 07:30N 70°13' E 021°43'0 0.0
2017-Dec-10 07:00N 70°13' E 021°43'0 0.0
2017-Dec-10 06:29N 70°13' E 021°43'0 0.0
2017-Dec-10 06:00N 70°13' E 021°43'0 0.0
2017-Dec-10 05:30N 70°13' E 021°43'0 0.0
2017-Dec-10 05:00N 70°13' E 021°43'0 0.0
2017-Dec-10 04:30N 70°13' E 021°43'0 0.0
2017-Dec-10 04:00N 70°13' E 021°43'0 0.0
2017-Dec-10 03:29N 70°13' E 021°43'0 0.0
2017-Dec-10 03:00N 70°13' E 021°43'0 0.0
2017-Dec-10 02:30N 70°13' E 021°43'0 0.0
2017-Dec-10 02:00N 70°13' E 021°43'0 0.0
2017-Dec-10 01:29N 70°13' E 021°43'0 0.0
2017-Dec-10 01:00N 70°13' E 021°43'0 0.0
2017-Dec-10 00:29N 70°13' E 021°43'0 0.0
2017-Dec-09 23:59N 70°13' E 021°43'0 0.0
2017-Dec-09 23:29N 70°13' E 021°43'0 0.0
2017-Dec-09 22:59N 70°13' E 021°43'0 0.0
2017-Dec-09 22:28N 70°13' E 021°43'0 0.0
2017-Dec-09 22:00N 70°13' E 021°43'0 0.0
2017-Dec-09 21:29N 70°13' E 021°43'0 0.0
2017-Dec-09 21:00N 70°13' E 021°43'0 0.0
2017-Dec-09 20:31N 70°13' E 021°43'0 0.0
2017-Dec-09 19:59N 70°13' E 021°43'0 0.0
2017-Dec-09 19:30N 70°13' E 021°43'0 0.0
2017-Dec-09 19:00N 70°13' E 021°43'0 0.0
2017-Dec-09 18:29N 70°13' E 021°43'0 0.0
2017-Dec-09 18:00N 70°13' E 021°43'0 0.0
2017-Dec-09 17:29N 70°13' E 021°43'0 0.0
2017-Dec-09 16:54N 70°13' E 021°43'0 0.0
2017-Dec-09 16:30N 70°13' E 021°43'0 0.0
2017-Dec-09 16:00N 70°13' E 021°43'0 0.0
2017-Dec-09 15:28N 70°13' E 021°43'0 0.0
2017-Dec-09 14:49N 70°13' E 021°43'0 0.0
2017-Dec-09 14:12N 70°13' E 021°43'0 0.0
2017-Dec-09 13:46N 70°13' E 021°43'0 0.0
2017-Dec-09 13:30N 70°13' E 021°43'0 0.0
2017-Dec-09 12:56N 70°13' E 021°43'0 0.0
2017-Dec-09 12:29N 70°13' E 021°43'0 0.0
2017-Dec-09 11:56N 70°13' E 021°43'2 4.6
2017-Dec-09 11:30N 70°15' E 021°45'510.1
2017-Dec-09 10:59N 70°19' E 021°54'5 9.5
2017-Dec-09 10:30N 70°19' E 022°08'510.7
2017-Dec-09 10:00N 70°16' E 022°19'2 3.4
2017-Dec-09 09:30N 70°14' E 022°21'1 1.9
2017-Dec-09 09:00N 70°15' E 022°20'510.6
2017-Dec-09 08:30N 70°19' E 022°10'510.6
2017-Dec-09 08:00N 70°20' E 021°54'5 9.1
2017-Dec-09 07:30N 70°16' E 021°46'3 5.2
2017-Dec-09 07:00N 70°13' E 021°44'0 0.8
2017-Dec-09 06:30N 70°13' E 021°43'0 0.0
2017-Dec-09 06:00N 70°13' E 021°43'0 0.0
2017-Dec-09 05:30N 70°13' E 021°43'0 0.0
2017-Dec-09 04:59N 70°13' E 021°43'0 0.0
2017-Dec-09 04:30N 70°13' E 021°43'0 0.0
2017-Dec-09 03:58N 70°13' E 021°43'0 0.0
2017-Dec-09 03:30N 70°13' E 021°43'0 0.0
2017-Dec-09 02:59N 70°13' E 021°43'0 0.0
2017-Dec-09 02:29N 70°13' E 021°43'0 0.0
2017-Dec-09 01:59N 70°13' E 021°43'0 0.0
2017-Dec-09 01:30N 70°13' E 021°43'0 0.0
2017-Dec-09 01:00N 70°13' E 021°43'0 0.0
2017-Dec-09 00:30N 70°13' E 021°43'0 0.0
2017-Dec-09 00:00N 70°13' E 021°43'0 0.0
2017-Dec-08 23:30N 70°13' E 021°43'0 0.0
2017-Dec-08 22:59N 70°13' E 021°43'0 0.0
2017-Dec-08 22:29N 70°13' E 021°43'0 0.0
2017-Dec-08 22:00N 70°13' E 021°43'0 0.0
2017-Dec-08 21:29N 70°13' E 021°43'0 0.0
2017-Dec-08 20:59N 70°13' E 021°43'0 0.0
2017-Dec-08 20:29N 70°13' E 021°43'2 4.9
2017-Dec-08 20:00N 70°15' E 021°47'4 7.9
2017-Dec-08 19:30N 70°19' E 021°52'610.9
2017-Dec-08 18:59N 70°19' E 022°09'611.8
2017-Dec-08 18:30N 70°15' E 022°20'1 1.5
2017-Dec-08 18:00N 70°14' E 022°21'0 0.0
2017-Dec-08 17:30N 70°14' E 022°21'0 0.0
2017-Dec-08 17:00N 70°14' E 022°21'0 0.0
2017-Dec-08 16:30N 70°14' E 022°21'1 1.6
2017-Dec-08 16:00N 70°14' E 022°19'1 1.6
2017-Dec-08 15:30N 70°14' E 022°21'5 9.8
2017-Dec-08 15:00N 70°19' E 022°18'611.0
2017-Dec-08 14:30N 70°24' E 022°14'510.0
2017-Dec-08 13:59N 70°29' E 022°10'0 0.0
2017-Dec-08 13:30N 70°29' E 022°10'0 0.0
2017-Dec-08 13:00N 70°29' E 022°10'0 0.0
2017-Dec-08 12:30N 70°29' E 022°10'0 0.0
2017-Dec-08 12:00N 70°29' E 022°10'0 0.0
2017-Dec-08 11:30N 70°29' E 022°10'0 0.0
2017-Dec-08 10:59N 70°29' E 022°10'0 0.0
2017-Dec-08 10:30N 70°29' E 022°10'2 4.5
2017-Dec-08 10:00N 70°27' E 022°13'611.7
2017-Dec-08 09:30N 70°21' E 022°17'611.6
2017-Dec-08 09:00N 70°16' E 022°20'2 4.3
2017-Dec-08 08:30N 70°14' E 022°16'1 3.0
2017-Dec-08 08:00N 70°14' E 022°20'510.4
2017-Dec-08 07:30N 70°19' E 022°11'510.6
2017-Dec-08 07:00N 70°20' E 021°56'611.5
2017-Dec-08 06:30N 70°15' E 021°47'2 4.7
2017-Dec-08 06:00N 70°13' E 021°43'0 0.0
2017-Dec-08 05:30N 70°13' E 021°43'0 0.0
2017-Dec-08 05:00N 70°13' E 021°43'0 0.0
2017-Dec-08 04:25N 70°13' E 021°43'0 0.0
2017-Dec-08 04:00N 70°13' E 021°43'0 0.0
2017-Dec-08 03:27N 70°13' E 021°43'0 0.0
2017-Dec-08 02:59N 70°13' E 021°43'0 0.0
2017-Dec-08 02:30N 70°13' E 021°43'0 0.0
2017-Dec-08 02:00N 70°13' E 021°43'0 0.0
2017-Dec-08 01:30N 70°13' E 021°43'0 0.0
2017-Dec-08 01:00N 70°13' E 021°43'0 0.0
2017-Dec-08 00:30N 70°13' E 021°43'0 0.0
2017-Dec-07 23:59N 70°13' E 021°43'0 0.0
2017-Dec-07 23:30N 70°13' E 021°43'0 0.0
2017-Dec-07 23:00N 70°13' E 021°43'0 0.0
2017-Dec-07 22:30N 70°13' E 021°43'0 0.0
2017-Dec-07 22:00N 70°13' E 021°43'0 0.0
2017-Dec-07 21:30N 70°13' E 021°43'0 0.0
2017-Dec-07 20:58N 70°13' E 021°43'0 0.0
2017-Dec-07 20:29N 70°13' E 021°43'0 0.8
2017-Dec-07 20:00N 70°13' E 021°44'3 5.6
2017-Dec-07 19:30N 70°16' E 021°46'611.3
2017-Dec-07 19:00N 70°20' E 021°58'611.4
2017-Dec-07 18:30N 70°18' E 022°14'5 9.5
2017-Dec-07 18:00N 70°14' E 022°21'0 0.0
2017-Dec-07 17:30N 70°14' E 022°21'0 0.0
2017-Dec-07 17:00N 70°14' E 022°21'0 0.0
2017-Dec-07 16:30N 70°14' E 022°21'1 1.2
2017-Dec-07 16:00N 70°14' E 022°20'1 1.2
2017-Dec-07 15:30N 70°14' E 022°21'5 9.5
2017-Dec-07 15:00N 70°18' E 022°16'611.3
2017-Dec-07 14:30N 70°24' E 022°14'510.5
2017-Dec-07 14:00N 70°29' E 022°10'0 0.0
2017-Dec-07 13:30N 70°29' E 022°10'0 0.0
2017-Dec-07 13:00N 70°29' E 022°10'0 0.0
2017-Dec-07 12:30N 70°29' E 022°10'0 0.0
2017-Dec-07 12:00N 70°29' E 022°10'0 0.0
2017-Dec-07 11:30N 70°29' E 022°10'0 0.0
2017-Dec-07 11:00N 70°29' E 022°10'0 0.0
2017-Dec-07 10:30N 70°29' E 022°10'2 4.5
2017-Dec-07 10:00N 70°27' E 022°13'611.6
2017-Dec-07 09:30N 70°21' E 022°17'611.7
2017-Dec-07 09:00N 70°16' E 022°20'2 4.2
2017-Dec-07 08:30N 70°14' E 022°16'2 3.7
2017-Dec-07 08:00N 70°14' E 022°21'510.0
2017-Dec-07 07:30N 70°18' E 022°13'611.2
2017-Dec-07 07:00N 70°20' E 021°58'611.3
2017-Dec-07 06:30N 70°16' E 021°46'  
2017-Dec-04 10:30N 70°14' E 022°21'4 7.6
2017-Dec-04 10:00N 70°18' E 022°18'611.6
2017-Dec-04 09:30N 70°23' E 022°15'611.2
2017-Dec-04 09:00N 70°29' E 022°10'1 3.0
2017-Dec-04 08:30N 70°28' E 022°12'611.6
2017-Dec-04 07:59N 70°22' E 022°15'611.3
2017-Dec-04 07:30N 70°16' E 022°19'3 5.4
2017-Dec-04 07:00N 70°14' E 022°17'2 3.2
2017-Dec-04 06:29N 70°14' E 022°21'4 9.1
2017-Dec-04 06:00N 70°18' E 022°18'611.5
2017-Dec-04 05:30N 70°24' E 022°14'510.6
2017-Dec-04 05:00N 70°29' E 022°10'0 0.0
2017-Dec-04 04:30N 70°29' E 022°10'0 0.0
2017-Dec-04 04:00N 70°29' E 022°10'0 0.0
2017-Dec-04 03:30N 70°29' E 022°10'0 0.0
2017-Dec-04 03:00N 70°29' E 022°10'0 0.0
2017-Dec-04 02:30N 70°29' E 022°10'0 0.0
2017-Dec-04 02:00N 70°29' E 022°10'0 0.0
2017-Dec-04 01:30N 70°29' E 022°10'0 0.0
2017-Dec-04 01:00N 70°29' E 022°10'0 0.0
2017-Dec-04 00:30N 70°29' E 022°10'0 0.0
2017-Dec-04 00:00N 70°29' E 022°10'0 0.0
2017-Dec-03 23:30N 70°29' E 022°10'0 0.0
2017-Dec-03 23:00N 70°29' E 022°10'0 0.0
2017-Dec-03 22:30N 70°29' E 022°10'0 0.0
2017-Dec-03 22:00N 70°29' E 022°10'0 0.0
2017-Dec-03 21:29N 70°29' E 022°10'0 0.0
2017-Dec-03 21:00N 70°29' E 022°10'0 0.1
2017-Dec-03 20:30N 70°29' E 022°10'510.5
2017-Dec-03 20:00N 70°24' E 022°14'510.5
2017-Dec-03 19:30N 70°19' E 022°17'510.0
2017-Dec-03 19:00N 70°14' E 022°21'2 3.6
2017-Dec-03 18:30N 70°14' E 022°16'2 3.5
2017-Dec-03 18:00N 70°15' E 022°20'611.9
2017-Dec-03 17:30N 70°21' E 022°16'611.6
2017-Dec-03 17:00N 70°27' E 022°12'2 3.5
2017-Dec-03 16:30N 70°28' E 022°11'611.6
2017-Dec-03 16:00N 70°23' E 022°15'510.8
2017-Dec-03 15:29N 70°17' E 022°19'3 6.9
2017-Dec-03 15:00N 70°14' E 022°21'0 0.0
2017-Dec-03 14:30N 70°14' E 022°21'0 0.0
2017-Dec-03 14:00N 70°14' E 022°21'0 0.0
2017-Dec-03 13:30N 70°14' E 022°21'0 0.0
2017-Dec-03 13:00N 70°14' E 022°21'0 0.0
2017-Dec-03 12:29N 70°14' E 022°21'0 0.0
2017-Dec-03 12:00N 70°14' E 022°21'0 0.0
2017-Dec-03 11:30N 70°14' E 022°21'0 0.0
2017-Dec-03 11:00N 70°14' E 022°21'0 0.0
2017-Dec-03 10:30N 70°14' E 022°21'2 4.8
2017-Dec-03 10:00N 70°16' E 022°19'611.5
2017-Dec-03 09:30N 70°22' E 022°16'611.6
2017-Dec-03 09:00N 70°28' E 022°12'2 3.3
2017-Dec-03 08:30N 70°29' E 022°10'0 0.0
2017-Dec-03 08:00N 70°29' E 022°10'0 0.0
2017-Dec-03 07:30N 70°29' E 022°10'0 0.0
2017-Dec-03 07:00N 70°29' E 022°10'0 0.0
2017-Dec-03 06:30N 70°29' E 022°10'0 0.0
2017-Dec-03 06:00N 70°29' E 022°10'0 0.0
2017-Dec-03 05:30N 70°29' E 022°10'0 0.0
2017-Dec-03 05:00N 70°29' E 022°10'0 0.0
2017-Dec-03 04:30N 70°29' E 022°10'0 0.0
2017-Dec-03 04:00N 70°29' E 022°10'0 0.0
2017-Dec-03 03:29N 70°29' E 022°10'0 0.0
2017-Dec-03 02:59N 70°29' E 022°10'0 0.0
2017-Dec-03 02:30N 70°29' E 022°10'0 0.0
2017-Dec-03 02:00N 70°29' E 022°10'0 0.0
2017-Dec-03 01:30N 70°29' E 022°10'0 0.0
2017-Dec-03 01:00N 70°29' E 022°10'0 0.0
2017-Dec-03 00:30N 70°29' E 022°10'0 0.0
2017-Dec-03 00:00N 70°29' E 022°10'0 0.0
2017-Dec-02 23:30N 70°29' E 022°10'0 0.0
2017-Dec-02 22:59N 70°29' E 022°10'0 0.0
2017-Dec-02 22:30N 70°29' E 022°10'0 0.0
2017-Dec-02 22:00N 70°29' E 022°10'0 0.0
2017-Dec-02 21:30N 70°29' E 022°10'0 0.0
2017-Dec-02 21:00N 70°29' E 022°10'0 0.2
2017-Dec-02 20:30N 70°29' E 022°10'5 9.6
2017-Dec-02 20:00N 70°24' E 022°14'510.7
2017-Dec-02 19:30N 70°19' E 022°17'510.3
2017-Dec-02 19:00N 70°14' E 022°21'0 0.8
2017-Dec-02 18:30N 70°14' E 022°21'0 0.0
2017-Dec-02 18:00N 70°14' E 022°21'0 0.0
2017-Dec-02 17:30N 70°14' E 022°21'0 0.0
2017-Dec-02 17:00N 70°14' E 022°21'0 0.0
2017-Dec-02 16:30N 70°14' E 022°21'0 0.0
2017-Dec-02 16:00N 70°14' E 022°21'0 0.0
2017-Dec-02 15:30N 70°14' E 022°21'0 0.0
2017-Dec-02 15:00N 70°14' E 022°21'0 0.0
2017-Dec-02 14:30N 70°14' E 022°21'0 0.0
2017-Dec-02 14:00N 70°14' E 022°21'0 0.0
2017-Dec-02 13:30N 70°14' E 022°21'0 0.0
2017-Dec-02 13:00N 70°14' E 022°21'0 0.0
2017-Dec-02 12:30N 70°14' E 022°21'0 0.0
2017-Dec-02 12:00N 70°14' E 022°21'0 0.0
2017-Dec-02 11:30N 70°14' E 022°21'0 0.0
2017-Dec-02 11:00N 70°14' E 022°21'0 0.0
2017-Dec-02 10:30N 70°14' E 022°21'0 0.0
2017-Dec-02 10:00N 70°14' E 022°21'0 0.0
2017-Dec-02 09:30N 70°14' E 022°21'0 0.0
2017-Dec-02 09:00N 70°14' E 022°21'0 0.0
2017-Dec-02 08:30N 70°14' E 022°21'0 0.0
2017-Dec-02 08:00N 70°14' E 022°21'0 0.0
2017-Dec-02 07:30N 70°14' E 022°21'0 0.0
2017-Dec-02 07:00N 70°14' E 022°21'0 0.4
2017-Dec-02 06:30N 70°14' E 022°21'611.3
2017-Dec-02 06:00N 70°20' E 022°17'611.1
2017-Dec-02 05:29N 70°25' E 022°09'4 8.8
2017-Dec-02 05:00N 70°29' E 022°10'0 0.0
2017-Dec-02 04:30N 70°29' E 022°10'0 0.0
2017-Dec-02 04:00N 70°29' E 022°10'0 0.0
2017-Dec-02 03:30N 70°29' E 022°10'0 0.0
2017-Dec-02 03:00N 70°29' E 022°10'0 0.0
2017-Dec-02 02:30N 70°29' E 022°10'0 0.0
2017-Dec-02 02:00N 70°29' E 022°10'0 0.0
2017-Dec-02 01:30N 70°29' E 022°10'0 0.0
2017-Dec-02 00:59N 70°29' E 022°10'0 0.0
2017-Dec-02 00:30N 70°29' E 022°10'0 0.0
2017-Dec-02 00:00N 70°29' E 022°10'0 0.0
2017-Dec-01 23:30N 70°29' E 022°10'0 0.0
2017-Dec-01 23:00N 70°29' E 022°10'0 0.0
2017-Dec-01 22:30N 70°29' E 022°10'0 0.0
2017-Dec-01 21:59N 70°29' E 022°10'0 0.0
2017-Dec-01 21:30N 70°29' E 022°10'0 0.0
2017-Dec-01 21:00N 70°29' E 022°10'0 0.0
2017-Dec-01 20:30N 70°29' E 022°10'4 7.7
2017-Dec-01 20:00N 70°25' E 022°13'611.8
2017-Dec-01 19:30N 70°20' E 022°17'611.6
2017-Dec-01 19:00N 70°14' E 022°21'2 3.8
2017-Dec-01 18:30N 70°14' E 022°16'3 5.1
2017-Dec-01 18:00N 70°16' E 022°19'611.1
2017-Dec-01 17:30N 70°21' E 022°16'  

Dump ship's entire track history